Time;durP1;ratioP1;P1;durP2;ratioP2;P2;SDS_P1;SDS_P2;PMS_P1;PMS_P2;Temp;Humidity;BMP_temperature;BMP_pressure;BME280_temperature;BME280_humidity;BME280_pressure;Samples;Min_cycle;Max_cycle;Signal;HPM_P1;HPM_P2
2021/10/06 00:01:34;;;;;;;35.53;17.67;;;;;;;8.13;54.91;101912.66;126290;1099;104178;-76
2021/10/06 00:04:05;;;;;;;35.73;16.90;;;;;;;8.15;55.26;101910.15;126361;1099;104252;-77
2021/10/06 00:06:37;;;;;;;36.60;17.90;;;;;;;8.14;55.49;101910.97;126342;1099;104280;-77
2021/10/06 00:09:08;;;;;;;35.27;17.53;;;;;;;8.12;55.25;101912.55;126314;1099;104252;-76
2021/10/06 00:11:40;;;;;;;32.80;16.30;;;;;;;8.11;55.04;101919.50;126382;1099;104268;-76
2021/10/06 00:14:12;;;;;;;35.13;18.50;;;;;;;8.09;55.28;101918.50;126297;1099;104306;-76
2021/10/06 00:16:43;;;;;;;34.27;17.90;;;;;;;8.07;55.49;101912.23;126380;1099;104178;-76
2021/10/06 00:19:14;;;;;;;34.77;16.67;;;;;;;8.09;55.60;101913.27;126248;1098;104222;-77
2021/10/06 00:21:47;;;;;;;30.10;16.47;;;;;;;8.09;55.45;101905.43;126371;1099;104176;-76
2021/10/06 00:24:17;;;;;;;30.33;15.83;;;;;;;8.07;55.58;101909.62;126359;1098;104244;-76
2021/10/06 00:26:48;;;;;;;30.27;15.87;;;;;;;8.04;55.70;101899.88;126320;1098;104150;-77
2021/10/06 00:29:19;;;;;;;30.67;16.13;;;;;;;7.97;56.01;101915.04;126298;1099;104319;-76
2021/10/06 00:31:50;;;;;;;35.43;15.97;;;;;;;7.90;56.31;101917.23;126334;1099;104178;-76
2021/10/06 00:34:21;;;;;;;34.37;15.53;;;;;;;7.86;56.35;101920.42;126372;1099;104226;-77
2021/10/06 00:36:52;;;;;;;32.97;16.30;;;;;;;7.80;56.38;101927.83;126368;1099;104207;-77
2021/10/06 00:39:22;;;;;;;32.63;16.27;;;;;;;7.78;56.02;101928.55;126279;1099;104389;-77
2021/10/06 00:41:53;;;;;;;34.50;16.00;;;;;;;7.76;56.58;101923.22;126346;1099;104249;-76
2021/10/06 00:44:24;;;;;;;30.77;15.57;;;;;;;7.77;56.60;101918.88;126270;1099;104278;-75
2021/10/06 00:46:55;;;;;;;28.50;14.50;;;;;;;7.79;56.72;101918.20;126337;1099;104201;-76
2021/10/06 00:49:25;;;;;;;31.73;16.33;;;;;;;7.81;56.81;101916.59;126292;1099;104313;-75
2021/10/06 00:51:57;;;;;;;35.17;16.17;;;;;;;7.79;56.56;101920.81;126339;1099;104312;-76
2021/10/06 00:54:27;;;;;;;33.40;15.70;;;;;;;7.77;56.31;101918.88;126364;1099;104215;-76
2021/10/06 00:56:58;;;;;;;33.03;15.40;;;;;;;7.74;56.79;101919.56;126307;1099;104146;-76
2021/10/06 00:59:29;;;;;;;33.57;15.73;;;;;;;7.69;56.82;101926.19;126329;1099;104146;-76
2021/10/06 01:02:00;;;;;;;32.30;15.67;;;;;;;7.69;56.65;101927.08;126341;1099;104188;-76
2021/10/06 01:04:31;;;;;;;34.00;15.50;;;;;;;7.72;56.68;101929.02;126318;1098;104191;-77
2021/10/06 01:07:02;;;;;;;31.60;16.13;;;;;;;7.75;56.77;101929.23;126312;1099;104156;-77
2021/10/06 01:09:34;;;;;;;28.83;14.57;;;;;;;7.75;56.78;101931.84;126294;1099;104227;-76
2021/10/06 01:12:05;;;;;;;30.13;14.50;;;;;;;7.74;56.75;101924.80;126345;1097;104230;-77
2021/10/06 01:14:36;;;;;;;33.37;15.17;;;;;;;7.73;57.12;101930.84;126343;1099;104299;-76
2021/10/06 01:17:08;;;;;;;31.23;14.57;;;;;;;7.71;57.10;101927.19;126321;1099;104771;-76
2021/10/06 01:19:38;;;;;;;30.10;14.57;;;;;;;7.73;56.88;101931.73;126303;1097;104332;-77
2021/10/06 01:22:09;;;;;;;33.30;15.50;;;;;;;7.73;57.06;101929.13;126355;1098;104224;-77
2021/10/06 01:24:40;;;;;;;28.53;14.90;;;;;;;7.67;57.27;101926.08;126352;1099;104200;-77
2021/10/06 01:27:11;;;;;;;28.47;14.70;;;;;;;7.63;57.57;101926.66;126381;1099;104146;-76
2021/10/06 01:29:42;;;;;;;30.07;14.93;;;;;;;7.62;57.14;101918.70;126249;1099;104163;-76
2021/10/06 01:32:15;;;;;;;30.40;14.53;;;;;;;7.55;57.72;101918.27;126290;1099;104153;-76
2021/10/06 01:34:58;;;;;;;31.80;15.77;;;;;;;7.53;57.86;101921.59;126348;1099;104163;-76
2021/10/06 01:37:29;;;;;;;32.37;15.27;;;;;;;7.50;57.46;101930.11;126363;1099;104255;-76
2021/10/06 01:40:02;;;;;;;30.53;16.03;;;;;;;7.51;57.53;101924.09;126300;1099;104267;-77
2021/10/06 01:42:34;;;;;;;30.95;14.93;;;;;;;7.52;57.79;101927.61;126347;1097;104182;-76
2021/10/06 01:45:14;;;;;;;28.67;14.73;;;;;;;7.49;57.53;101928.28;126331;1099;104159;-76
2021/10/06 01:47:45;;;;;;;28.60;14.37;;;;;;;7.49;57.62;101930.00;126365;1099;104245;-77
2021/10/06 01:50:22;;;;;;;30.70;15.40;;;;;;;7.45;57.74;101928.89;126212;1099;104408;-76
2021/10/06 01:52:55;;;;;;;28.50;14.80;;;;;;;7.45;57.66;101936.72;126344;1099;104153;-75
2021/10/06 01:55:31;;;;;;;29.67;15.20;;;;;;;7.42;57.72;101936.50;126310;1099;104149;-76
2021/10/06 01:58:04;;;;;;;30.30;16.10;;;;;;;7.41;58.14;101933.78;126325;1099;104172;-77
2021/10/06 02:00:36;;;;;;;33.53;16.07;;;;;;;7.36;58.38;101942.18;126270;1099;104312;-76
2021/10/06 02:03:06;;;;;;;34.83;16.53;;;;;;;7.32;58.12;101939.24;126321;1099;104146;-76
2021/10/06 02:05:39;;;;;;;41.87;17.70;;;;;;;7.29;58.15;101947.78;126354;1099;104143;-76
2021/10/06 02:08:14;;;;;;;32.13;16.10;;;;;;;7.26;58.51;101949.23;126302;1099;104624;-77
2021/10/06 02:10:46;;;;;;;33.60;15.60;;;;;;;7.22;58.32;101955.95;126289;1099;104168;-76
2021/10/06 02:13:17;;;;;;;28.60;14.50;;;;;;;7.23;58.37;101962.07;126299;1099;104152;-76
2021/10/06 02:15:47;;;;;;;30.43;15.27;;;;;;;7.21;58.47;101959.35;126379;1099;104284;-76
2021/10/06 02:18:18;;;;;;;33.17;15.60;;;;;;;7.18;58.38;101962.67;126258;1099;104204;-76
2021/10/06 02:20:49;;;;;;;33.10;15.27;;;;;;;7.17;58.43;101970.39;126235;1099;104214;-76
2021/10/06 02:23:20;;;;;;;31.23;14.43;;;;;;;7.13;58.53;101958.79;126337;1098;104147;-77
2021/10/06 02:25:50;;;;;;;30.53;15.53;;;;;;;7.10;58.55;101968.11;126352;1099;104175;-77
2021/10/06 02:28:21;;;;;;;29.40;15.00;;;;;;;7.09;58.79;101969.83;126347;1099;104188;-77
2021/10/06 02:30:52;;;;;;;29.60;14.47;;;;;;;7.10;58.63;101970.72;126273;1099;104153;-76
2021/10/06 02:33:23;;;;;;;26.97;14.70;;;;;;;7.09;58.56;101974.12;126306;1099;104140;-77
2021/10/06 02:35:53;;;;;;;30.57;14.97;;;;;;;7.02;58.69;101971.05;126336;1099;104160;-77
2021/10/06 02:38:24;;;;;;;26.87;14.03;;;;;;;6.97;58.65;101972.43;126315;1099;104245;-76
2021/10/06 02:40:55;;;;;;;30.13;15.37;;;;;;;6.92;58.70;101972.87;126315;1097;104185;-76
2021/10/06 02:43:25;;;;;;;27.40;14.17;;;;;;;6.83;58.81;101975.73;126315;1099;104787;-76
2021/10/06 02:45:56;;;;;;;34.10;16.23;;;;;;;6.75;58.99;101979.48;126316;1099;104188;-77
2021/10/06 02:48:26;;;;;;;34.50;16.37;;;;;;;6.63;58.94;101982.06;126328;1099;104236;-76
2021/10/06 02:50:58;;;;;;;34.70;16.93;;;;;;;6.54;59.08;101984.88;126272;1099;104300;-76
2021/10/06 02:53:28;;;;;;;33.47;16.93;;;;;;;6.51;58.91;101987.25;126195;1099;104192;-76
2021/10/06 02:55:59;;;;;;;32.43;16.73;;;;;;;6.44;59.21;101987.59;126202;1099;104431;-77
2021/10/06 02:58:29;;;;;;;33.50;16.87;;;;;;;6.40;59.46;101994.25;125382;1099;104287;-76
2021/10/06 03:01:00;;;;;;;38.97;17.27;;;;;;;6.38;59.39;101985.41;125846;1099;104735;-76
2021/10/06 03:03:31;;;;;;;31.23;16.40;;;;;;;6.33;59.42;101991.98;125267;1099;104230;-76
2021/10/06 03:06:01;;;;;;;39.93;15.80;;;;;;;6.27;59.70;101994.12;125318;1099;104214;-76
2021/10/06 03:08:32;;;;;;;35.00;17.23;;;;;;;6.18;59.65;101996.91;125303;1099;104798;-77
2021/10/06 03:11:03;;;;;;;33.87;17.07;;;;;;;6.10;60.02;101995.42;125411;1100;104341;-76
2021/10/06 03:13:34;;;;;;;36.13;18.23;;;;;;;6.04;60.14;101997.55;126337;1099;104159;-77
2021/10/06 03:16:05;;;;;;;34.13;17.07;;;;;;;5.99;60.37;102004.11;126347;1099;104174;-76
2021/10/06 03:18:35;;;;;;;40.37;18.13;;;;;;;5.94;60.16;102009.82;126375;1098;104217;-76
2021/10/06 03:21:06;;;;;;;39.07;17.83;;;;;;;5.92;60.11;102010.48;126276;1099;105261;-75
2021/10/06 03:23:37;;;;;;;37.13;18.20;;;;;;;5.89;60.02;102011.17;126296;1099;104255;-77
2021/10/06 03:26:07;;;;;;;38.73;16.93;;;;;;;5.88;60.44;102008.44;126353;1099;104811;-75
2021/10/06 03:28:38;;;;;;;46.23;18.90;;;;;;;5.88;60.62;102006.73;126346;1099;104162;-76
2021/10/06 03:31:09;;;;;;;42.27;18.30;;;;;;;5.89;60.54;102010.23;126338;1099;105546;-76
2021/10/06 03:33:39;;;;;;;38.87;18.40;;;;;;;5.89;60.78;102008.56;126351;1099;104271;-76
2021/10/06 03:36:10;;;;;;;41.10;18.57;;;;;;;5.92;60.50;102002.66;126288;1099;104191;-77
2021/10/06 03:38:41;;;;;;;42.63;17.90;;;;;;;5.93;61.06;102005.39;126318;1099;104290;-76
2021/10/06 03:41:11;;;;;;;37.50;17.83;;;;;;;5.93;61.04;102007.09;126261;1099;104222;-76
2021/10/06 03:43:42;;;;;;;37.20;18.40;;;;;;;5.93;60.78;102007.99;126358;1099;105338;-76
2021/10/06 03:46:13;;;;;;;35.60;18.57;;;;;;;5.95;61.07;102005.51;126326;1099;104178;-76
2021/10/06 03:48:45;;;;;;;40.80;17.50;;;;;;;5.91;61.19;102008.68;126316;1099;104338;-76
2021/10/06 03:51:16;;;;;;;34.83;17.17;;;;;;;5.88;61.09;102001.52;126295;1099;104204;-76
2021/10/06 03:53:46;;;;;;;36.43;17.33;;;;;;;5.82;61.21;102006.25;126323;1099;110791;-76
2021/10/06 03:56:17;;;;;;;36.00;18.27;;;;;;;5.76;60.97;102000.55;126339;1099;104246;-75
2021/10/06 03:58:47;;;;;;;38.60;18.10;;;;;;;5.75;61.51;102002.26;126316;1098;104149;-76
2021/10/06 04:01:18;;;;;;;36.90;18.50;;;;;;;5.79;61.39;101999.90;126285;1099;104299;-76
2021/10/06 04:03:49;;;;;;;40.50;18.33;;;;;;;5.84;61.13;102008.97;126252;1099;104171;-77
2021/10/06 04:06:19;;;;;;;43.30;19.33;;;;;;;5.88;61.41;102004.13;126297;1099;104146;-77
2021/10/06 04:08:50;;;;;;;41.80;19.23;;;;;;;5.92;61.66;102000.98;126354;1099;104306;-76
2021/10/06 04:11:24;;;;;;;38.60;18.35;;;;;;;5.95;61.46;102005.51;126322;1098;104155;-76
2021/10/06 04:13:54;;;;;;;43.43;18.60;;;;;;;5.96;61.47;102006.44;126234;1099;104194;-75
2021/10/06 04:16:25;;;;;;;43.73;19.13;;;;;;;5.98;61.69;102000.57;126336;1097;104127;-75
2021/10/06 04:18:55;;;;;;;40.57;18.80;;;;;;;5.96;61.90;101994.31;126258;1099;104222;-75
2021/10/06 04:21:26;;;;;;;38.87;19.53;;;;;;;5.98;61.96;101997.97;126298;1099;104137;-76
2021/10/06 04:23:59;;;;;;;41.37;19.57;;;;;;;5.99;61.87;101991.08;126214;1099;104156;-76
2021/10/06 04:26:30;;;;;;;40.97;18.97;;;;;;;6.01;61.83;101992.99;126199;1099;104244;-75
2021/10/06 04:29:00;;;;;;;43.27;18.60;;;;;;;6.07;61.60;101988.27;126334;1099;104181;-75
2021/10/06 04:31:31;;;;;;;43.00;18.53;;;;;;;6.14;61.96;101991.34;126329;1099;104252;-75
2021/10/06 04:34:02;;;;;;;42.13;17.97;;;;;;;6.15;62.01;101986.25;126233;1099;104146;-76
2021/10/06 04:36:33;;;;;;;46.63;18.93;;;;;;;6.18;61.88;101993.41;126157;1099;104146;-76
2021/10/06 04:39:04;;;;;;;52.67;19.37;;;;;;;6.23;61.89;101998.20;126286;1097;104143;-76
2021/10/06 04:41:34;;;;;;;49.97;20.77;;;;;;;6.26;61.70;101992.30;126309;1099;104178;-76
2021/10/06 04:44:05;;;;;;;37.57;18.33;;;;;;;6.29;62.24;101997.74;126261;1098;104206;-77
2021/10/06 04:46:36;;;;;;;39.13;18.23;;;;;;;6.33;62.22;101991.05;126318;1099;104144;-77
2021/10/06 04:49:07;;;;;;;51.95;18.80;;;;;;;6.40;61.97;101998.56;126319;1099;104226;-77
2021/10/06 04:51:37;;;;;;;49.83;19.20;;;;;;;6.43;62.15;101991.88;126280;1099;104146;-79
2021/10/06 04:54:08;;;;;;;46.47;18.67;;;;;;;6.48;62.22;101993.16;126177;1099;104175;-77
2021/10/06 04:56:39;;;;;;;47.37;19.20;;;;;;;6.56;61.96;101998.02;126188;1098;104179;-78
2021/10/06 04:59:12;;;;;;;42.80;18.03;;;;;;;6.60;62.00;101995.77;126287;1099;104217;-77
2021/10/06 05:01:44;;;;;;;40.70;18.80;;;;;;;6.67;62.05;101991.95;126089;1099;104258;-78
2021/10/06 05:04:15;;;;;;;44.47;18.10;;;;;;;6.72;62.27;101993.19;126094;1098;104155;-78
2021/10/06 05:06:47;;;;;;;35.33;16.37;;;;;;;6.76;61.99;101996.92;126118;1099;104178;-77
2021/10/06 05:09:18;;;;;;;33.27;15.97;;;;;;;6.79;62.00;101998.09;126178;1099;104187;-78
2021/10/06 05:11:49;;;;;;;34.73;17.13;;;;;;;6.83;62.38;102002.72;126182;1097;104194;-77
2021/10/06 05:14:20;;;;;;;32.50;15.33;;;;;;;6.86;62.06;102001.12;126123;1099;104296;-78
2021/10/06 05:16:53;;;;;;;33.70;16.23;;;;;;;6.89;62.33;101998.73;126242;1099;104449;-78
2021/10/06 05:19:24;;;;;;;32.80;16.00;;;;;;;6.94;62.15;101998.30;126220;1099;104246;-78
2021/10/06 05:21:55;;;;;;;30.93;15.43;;;;;;;6.99;62.19;101998.64;126089;1099;104201;-79
2021/10/06 05:24:25;;;;;;;32.97;15.03;;;;;;;6.99;62.24;101996.93;126115;1098;104214;-78
2021/10/06 05:26:56;;;;;;;34.67;17.20;;;;;;;7.02;62.15;101993.66;126093;1099;104272;-78
2021/10/06 05:29:27;;;;;;;36.47;15.90;;;;;;;7.04;62.37;101997.27;126202;1099;104460;-78
2021/10/06 05:32:03;;;;;;;40.87;17.37;;;;;;;7.08;62.42;102001.03;126173;1099;104656;-76
2021/10/06 05:34:35;;;;;;;43.63;17.70;;;;;;;7.13;62.56;101997.05;126095;1099;104336;-78
2021/10/06 05:37:06;;;;;;;38.87;16.77;;;;;;;7.19;62.55;102002.73;126139;1099;104139;-77
2021/10/06 05:39:38;;;;;;;30.50;16.43;;;;;;;7.24;62.47;102005.67;126102;1099;104166;-78
2021/10/06 05:42:10;;;;;;;33.37;16.60;;;;;;;7.25;62.40;102017.95;126279;1099;104133;-77
2021/10/06 05:44:49;;;;;;;29.33;16.50;;;;;;;7.25;62.66;102010.11;126148;1099;104734;-77
2021/10/06 05:47:27;;;;;;;37.70;16.93;;;;;;;7.25;62.33;102013.62;126163;1099;104184;-77
2021/10/06 05:50:00;;;;;;;34.38;16.67;;;;;;;7.26;62.76;102005.00;126086;1099;104239;-77
2021/10/06 05:52:32;;;;;;;34.20;16.17;;;;;;;7.30;62.52;102011.34;126060;1099;104233;-77
2021/10/06 05:55:07;;;;;;;37.93;17.20;;;;;;;7.37;62.58;102006.69;126092;1099;104261;-76
2021/10/06 05:57:39;;;;;;;40.43;19.07;;;;;;;7.48;63.25;102002.23;126292;1099;104592;-76
2021/10/06 06:00:11;;;;;;;43.13;18.10;;;;;;;7.59;63.17;102002.09;126195;1099;104207;-76
2021/10/06 06:02:47;;;;;;;37.13;17.63;;;;;;;7.72;62.73;102008.30;126128;1098;104300;-75
2021/10/06 06:05:20;;;;;;;36.27;15.70;;;;;;;7.88;63.12;102006.78;125986;1099;104159;-75
2021/10/06 06:07:51;;;;;;;38.87;16.83;;;;;;;8.02;62.95;102008.64;125940;1099;105066;-77
2021/10/06 06:10:23;;;;;;;37.73;15.40;;;;;;;8.16;62.50;102004.38;125848;1099;104217;-76
2021/10/06 06:12:55;;;;;;;35.77;15.60;;;;;;;8.28;63.10;102009.56;125940;1099;104309;-77
2021/10/06 06:15:27;;;;;;;37.50;15.70;;;;;;;8.40;62.78;102001.67;126085;1099;104178;-78
2021/10/06 06:18:00;;;;;;;31.03;14.53;;;;;;;8.51;62.98;101997.17;126106;1099;104396;-76
2021/10/06 06:20:35;;;;;;;35.83;15.83;;;;;;;8.61;62.65;101999.63;126137;1099;104331;-78
2021/10/06 06:23:06;;;;;;;;;;;;;;;8.71;62.19;101995.91;126235;1098;104232;-76
2021/10/06 06:25:38;;;;;;;34.10;14.73;;;;;;;8.81;62.59;101990.50;126043;1099;104255;-77
2021/10/06 06:28:09;;;;;;;33.70;15.17;;;;;;;8.93;62.48;101987.80;125990;1099;104181;-77
2021/10/06 06:30:43;;;;;;;34.67;16.03;;;;;;;9.04;62.77;101986.78;125961;1099;104238;-77
2021/10/06 06:33:16;;;;;;;38.10;16.07;;;;;;;9.14;62.33;101993.52;125924;1099;104136;-76
2021/10/06 06:35:48;;;;;;;39.73;16.37;;;;;;;9.24;61.91;101995.02;126105;1099;104262;-75
2021/10/06 06:38:20;;;;;;;37.83;16.13;;;;;;;9.36;61.80;101990.58;126142;1099;104200;-75
2021/10/06 06:40:55;;;;;;;36.40;16.00;;;;;;;9.47;61.95;101994.81;126132;1099;104185;-76
2021/10/06 06:43:26;;;;;;;27.67;12.03;;;;;;;9.60;61.82;101992.95;126038;1099;104140;-74
2021/10/06 06:45:57;;;;;;;33.53;13.77;;;;;;;9.75;61.89;101991.30;126075;1098;104290;-76
2021/10/06 06:48:29;;;;;;;28.63;13.77;;;;;;;9.92;62.26;101989.73;126241;1099;104192;-75
2021/10/06 06:51:00;;;;;;;31.43;13.67;;;;;;;10.08;61.44;101987.26;126182;1099;104622;-77
2021/10/06 06:53:32;;;;;;;29.40;13.37;;;;;;;10.26;62.07;101992.70;126167;1099;104168;-76
2021/10/06 06:56:04;;;;;;;32.33;13.07;;;;;;;10.41;61.92;101977.03;125948;1099;104363;-76
2021/10/06 06:58:38;;;;;;;30.10;13.07;;;;;;;10.57;61.68;101983.19;125989;1098;104210;-75
2021/10/06 07:01:17;;;;;;;33.67;14.53;;;;;;;10.70;61.14;101983.09;126085;1099;104235;-78
2021/10/06 07:03:51;;;;;;;30.37;12.67;;;;;;;10.87;60.97;101975.30;126264;1099;104175;-79
2021/10/06 07:06:33;;;;;;;30.17;13.60;;;;;;;11.02;60.38;101977.92;126129;1099;104160;-81
2021/10/06 07:09:09;;;;;;;30.80;13.13;;;;;;;11.17;60.49;101980.50;126022;1099;104159;-80
2021/10/06 07:11:45;;;;;;;26.93;11.27;;;;;;;11.33;60.64;101980.56;126157;1099;104251;-79
2021/10/06 07:14:24;;;;;;;30.67;13.67;;;;;;;11.48;60.19;101976.17;126158;1099;104271;-78
2021/10/06 07:16:56;;;;;;;34.07;13.07;;;;;;;11.60;60.21;101968.03;126016;1099;104152;-78
2021/10/06 07:19:37;;;;;;;28.10;11.13;;;;;;;11.70;60.16;101977.32;126214;1099;104150;-76
2021/10/06 07:22:29;;;;;;;23.47;9.20;;;;;;;11.80;59.12;101970.86;126153;1099;104219;-77
2021/10/06 07:25:07;;;;;;;19.97;8.33;;;;;;;11.93;59.29;101968.08;126084;1099;104194;-76
2021/10/06 07:27:38;;;;;;;18.63;9.07;;;;;;;12.08;59.08;101959.23;126267;1099;104271;-77
2021/10/06 07:30:15;;;;;;;18.37;8.23;;;;;;;12.21;57.97;101952.02;126129;1099;104191;-78
2021/10/06 07:32:50;;;;;;;17.53;7.83;;;;;;;12.31;57.60;101956.06;126206;1099;104287;-77
2021/10/06 07:35:25;;;;;;;22.13;8.20;;;;;;;12.40;57.35;101959.17;126136;1099;104283;-77
2021/10/06 07:38:00;;;;;;;20.10;7.60;;;;;;;12.52;55.82;101950.98;125985;1099;104187;-79
2021/10/06 07:40:39;;;;;;;17.00;7.53;;;;;;;12.63;56.74;101946.26;126019;1098;104232;-77
2021/10/06 07:43:12;;;;;;;20.00;7.73;;;;;;;12.73;56.72;101935.37;126069;1099;104168;-77
2021/10/06 07:45:51;;;;;;;22.57;8.13;;;;;;;12.85;56.61;101939.42;126130;1099;104171;-78
2021/10/06 07:48:28;;;;;;;20.03;8.13;;;;;;;12.95;55.88;101936.44;126206;1099;118853;-80
2021/10/06 07:51:09;;;;;;;19.25;8.10;;;;;;;13.08;55.63;101936.18;126065;1099;104303;-79
2021/10/06 07:53:43;;;;;;;19.27;7.13;;;;;;;13.22;55.69;101943.86;126178;1099;104165;-79
2021/10/06 07:56:18;;;;;;;23.70;8.50;;;;;;;13.30;55.39;101940.73;126218;1099;104271;-77
2021/10/06 07:58:52;;;;;;;17.47;7.47;;;;;;;13.42;55.00;101950.12;126135;1099;104146;-79
2021/10/06 08:01:26;;;;;;;;;;;;;;;13.48;52.31;101932.84;126244;1099;104159;-80
2021/10/06 08:04:01;;;;;;;20.17;7.85;;;;;;;13.59;54.54;101935.98;126134;1099;104194;-80
2021/10/06 08:06:35;;;;;;;20.03;7.57;;;;;;;13.69;53.99;101944.31;126152;1099;104232;-79
2021/10/06 08:09:15;;;;;;;19.13;6.93;;;;;;;13.75;53.46;101941.97;126195;1099;111721;-80
2021/10/06 08:11:52;;;;;;;15.77;6.73;;;;;;;13.81;52.93;101945.77;125953;1099;104676;-79
2021/10/06 08:14:26;;;;;;;18.83;7.13;;;;;;;13.83;52.67;101945.84;126154;1099;104255;-79
2021/10/06 08:17:05;;;;;;;21.33;6.80;;;;;;;13.85;52.54;101938.89;126058;1099;105938;-78
2021/10/06 08:19:40;;;;;;;18.90;6.30;;;;;;;13.90;52.81;101947.94;126075;1099;104198;-78
2021/10/06 08:22:15;;;;;;;13.63;6.40;;;;;;;13.95;51.45;101954.31;126053;1099;104226;-77
2021/10/06 08:24:51;;;;;;;15.93;6.27;;;;;;;14.06;52.22;101948.63;125186;1099;104223;-78
2021/10/06 08:27:24;;;;;;;17.10;6.40;;;;;;;14.09;51.85;101943.48;126078;1099;104770;-77
2021/10/06 08:29:55;;;;;;;19.03;6.60;;;;;;;14.19;51.02;101943.04;125363;1099;104299;-76
2021/10/06 08:32:28;;;;;;;17.25;5.78;;;;;;;14.27;49.20;101932.81;126162;1099;104264;-77
2021/10/06 08:35:00;;;;;;;17.83;6.70;;;;;;;14.33;50.87;101939.25;126064;1099;104328;-77
2021/10/06 08:37:35;;;;;;;15.95;6.35;;;;;;;14.43;50.44;101931.73;125311;1099;104300;-79
2021/10/06 08:40:13;;;;;;;16.53;6.20;;;;;;;14.52;50.45;101932.13;125281;1099;104175;-76
2021/10/06 08:42:52;;;;;;;17.03;6.57;;;;;;;14.60;49.69;101930.77;125198;1099;104181;-75
2021/10/06 08:45:25;;;;;;;16.73;6.17;;;;;;;14.63;48.61;101929.97;125308;1099;104146;-77
2021/10/06 08:47:58;;;;;;;;;;;;;;;14.71;47.83;101925.93;125892;1099;104261;-78
2021/10/06 08:50:35;;;;;;;14.30;6.13;;;;;;;14.79;49.69;101934.14;125148;1099;104328;-77
2021/10/06 08:53:09;;;;;;;17.97;6.50;;;;;;;14.89;49.27;101931.95;125176;1099;104171;-76
2021/10/06 08:55:40;;;;;;;12.70;6.90;;;;;;;14.90;48.60;101931.11;125203;1099;104460;-78
2021/10/06 08:58:16;;;;;;;13.98;5.95;;;;;;;15.04;49.24;101925.50;125759;1099;104176;-77
2021/10/06 09:00:58;;;;;;;16.95;6.62;;;;;;;15.13;48.12;101928.52;125786;1099;104255;-77
2021/10/06 09:03:41;;;;;;;19.05;5.78;;;;;;;15.14;46.67;101926.77;125904;1099;104152;-76
2021/10/06 09:06:18;;;;;;;13.00;5.57;;;;;;;15.13;48.00;101930.23;126128;1099;104229;-78
2021/10/06 09:08:53;;;;;;;19.27;5.87;;;;;;;15.10;48.38;101933.68;125980;1099;104233;-78
2021/10/06 09:11:31;;;;;;;13.13;5.47;;;;;;;15.06;47.45;101924.70;125977;1099;104217;-77
2021/10/06 09:14:06;;;;;;;12.40;5.50;;;;;;;15.02;45.61;101924.52;126065;1099;104242;-77
2021/10/06 09:16:42;;;;;;;15.60;5.80;;;;;;;15.06;46.64;101914.13;126168;1099;104152;-77
2021/10/06 09:19:39;;;;;;;14.03;5.97;;;;;;;15.15;47.09;101915.36;126161;1099;104088;-77
2021/10/06 09:22:20;;;;;;;14.40;5.27;;;;;;;15.19;46.68;101930.48;126127;1099;104213;-78
2021/10/06 09:24:56;;;;;;;17.73;5.67;;;;;;;15.14;47.21;101921.47;126197;1099;104184;-77
2021/10/06 09:27:34;;;;;;;16.77;6.00;;;;;;;15.33;47.64;101913.40;126057;1099;104223;-77
2021/10/06 09:30:11;;;;;;;10.70;5.00;;;;;;;15.61;47.39;101925.97;125990;1099;104139;-78
2021/10/06 09:32:41;;;;;;;;;;;;;;;15.63;45.06;101923.38;126131;1099;104172;-77
2021/10/06 09:35:19;;;;;;;13.20;5.17;;;;;;;15.66;45.67;101901.41;126119;1099;104165;-77
2021/10/06 09:37:54;;;;;;;15.40;5.10;;;;;;;15.58;44.42;101916.98;125985;1097;104181;-78
2021/10/06 09:40:29;;;;;;;11.80;5.43;;;;;;;15.54;45.09;101910.69;125266;1099;104163;-77
2021/10/06 09:43:04;;;;;;;10.37;4.97;;;;;;;15.78;45.91;101905.46;126070;1099;104169;-77
2021/10/06 09:45:38;;;;;;;8.13;4.50;;;;;;;15.92;44.33;101916.52;125955;1099;104281;-76
2021/10/06 09:48:12;;;;;;;18.10;4.95;;;;;;;16.08;43.94;101899.47;126008;1099;104198;-77
2021/10/06 09:50:47;;;;;;;10.60;5.23;;;;;;;16.34;44.90;101912.70;126052;1099;104152;-76
2021/10/06 09:53:23;;;;;;;;;;;;;;;16.32;40.55;101910.00;125914;1099;104220;-77
2021/10/06 09:56:16;;;;;;;13.63;5.47;;;;;;;16.52;43.77;101908.03;126200;1099;104194;-76
2021/10/06 09:59:00;;;;;;;15.07;5.73;;;;;;;16.50;44.57;101906.17;126136;1099;104232;-77
2021/10/06 10:01:36;;;;;;;13.50;5.50;;;;;;;16.45;44.51;101908.66;126103;1099;107046;-78
2021/10/06 10:04:12;;;;;;;14.23;5.30;;;;;;;16.41;44.00;101893.53;125962;1099;103185;-77
2021/10/06 10:06:47;;;;;;;14.80;5.63;;;;;;;16.33;43.75;101900.30;125946;1099;104175;-78
2021/10/06 10:09:24;;;;;;;14.13;5.20;;;;;;;16.15;43.63;101896.16;125092;1099;104165;-76
2021/10/06 10:11:57;;;;;;;12.23;5.47;;;;;;;16.17;43.27;101902.44;125988;1099;104168;-76
2021/10/06 10:14:32;;;;;;;12.77;5.50;;;;;;;15.99;42.49;101888.55;125857;1099;104220;-76
2021/10/06 10:17:05;;;;;;;15.30;5.47;;;;;;;16.11;43.17;101885.41;125831;1099;104714;-76
2021/10/06 10:19:36;;;;;;;11.30;5.43;;;;;;;16.18;42.64;101880.39;125792;1099;104172;-76
2021/10/06 10:22:13;;;;;;;11.23;5.30;;;;;;;16.45;43.50;101875.98;125752;1099;104240;-75
2021/10/06 10:25:01;;;;;;;8.78;4.72;;;;;;;16.65;41.76;101877.53;125932;1099;104200;-76
2021/10/06 10:27:35;;;;;;;13.03;5.70;;;;;;;16.78;42.04;101872.63;125811;1099;104879;-76
2021/10/06 10:30:08;;;;;;;14.50;5.33;;;;;;;16.94;41.61;101882.92;125970;1099;104178;-76
2021/10/06 10:32:46;;;;;;;12.75;5.05;;;;;;;17.00;40.62;101875.16;125880;1099;104323;-75
2021/10/06 10:35:34;;;;;;;11.73;5.23;;;;;;;17.09;41.13;101873.64;125964;1099;104153;-77
2021/10/06 10:38:14;;;;;;;11.27;4.70;;;;;;;17.19;36.70;101862.47;126021;1099;105435;-79
2021/10/06 10:40:58;;;;;;;12.30;5.10;;;;;;;17.37;40.91;101878.02;126161;1099;104370;-79
2021/10/06 10:43:32;;;;;;;14.15;5.33;;;;;;;17.33;40.21;101873.50;126194;1099;104158;-80
2021/10/06 10:46:17;;;;;;;14.20;5.80;;;;;;;17.29;39.87;101875.14;126228;1099;104137;-78
2021/10/06 10:49:07;;;;;;;16.60;5.87;;;;;;;17.37;40.17;101859.45;126152;1099;104666;-76
2021/10/06 10:51:55;;;;;;;15.83;5.27;;;;;;;17.35;39.44;101855.86;126079;1099;104146;-77
2021/10/06 10:54:47;;;;;;;13.93;5.40;;;;;;;17.33;38.44;101870.84;125999;1099;104332;-78
2021/10/06 10:57:31;;;;;;;13.03;5.53;;;;;;;17.31;38.83;101856.61;125893;1099;104267;-78
2021/10/06 11:00:30;;;;;;;15.60;5.67;;;;;;;17.20;37.31;101864.25;126085;1098;104198;-78
2021/10/06 11:03:03;;;;;;;11.50;4.93;;;;;;;17.01;38.42;101854.84;126068;1099;104171;-78
2021/10/06 11:06:01;;;;;;;12.93;5.05;;;;;;;17.00;38.49;101853.03;126079;1099;104235;-80
2021/10/06 11:08:41;;;;;;;15.13;5.33;;;;;;;17.02;38.98;101851.34;125977;1099;104169;-78
2021/10/06 11:11:35;;;;;;;11.93;5.50;;;;;;;16.88;37.25;101853.56;125273;1099;104296;-79
2021/10/06 11:14:21;;;;;;;14.50;5.33;;;;;;;16.91;37.84;101844.79;125170;1099;104216;-78
2021/10/06 11:17:10;;;;;;;13.77;5.33;;;;;;;16.97;38.43;101834.38;125274;1099;104367;-78
2021/10/06 11:19:44;;;;;;;18.13;5.53;;;;;;;16.97;37.98;101839.67;125949;1099;104570;-78
2021/10/06 11:22:38;;;;;;;13.87;5.27;;;;;;;16.95;37.64;101836.98;126009;1099;104630;-77
2021/10/06 11:25:11;;;;;;;12.60;5.60;;;;;;;16.93;37.96;101836.04;125511;1099;104281;-77
2021/10/06 11:27:53;;;;;;;16.67;6.03;;;;;;;16.91;37.86;101842.14;126031;1099;104348;-77
2021/10/06 11:30:36;;;;;;;15.07;6.27;;;;;;;16.86;37.62;101831.39;126112;1099;104332;-78
2021/10/06 11:33:30;;;;;;;14.80;5.57;;;;;;;16.82;37.42;101825.06;125295;1099;104816;-78